createdAt,value
2023-03-18T00:00:14.576Z,25.40
2023-03-18T00:02:55.161Z,25.40
2023-03-18T00:05:26.740Z,25.40
2023-03-18T00:08:08.824Z,25.40
2023-03-18T00:10:49.220Z,25.40
2023-03-18T00:13:19.980Z,25.40
2023-03-18T00:16:01.166Z,25.50
2023-03-18T00:18:33.776Z,25.50
2023-03-18T00:21:03.226Z,25.60
2023-03-18T00:23:32.888Z,25.60
2023-03-18T00:28:59.289Z,25.70
2023-03-18T00:31:50.230Z,25.70
2023-03-18T00:34:25.386Z,25.80
2023-03-18T00:36:59.965Z,25.80
2023-03-18T00:39:30.238Z,25.90
2023-03-18T00:42:01.326Z,26.00
2023-03-18T00:44:38.581Z,26.00
2023-03-18T00:47:15.795Z,26.10
2023-03-18T00:52:34.925Z,26.20
2023-03-18T00:55:13.282Z,26.30
2023-03-18T00:57:46.230Z,26.30
2023-03-18T01:00:28.026Z,26.40
2023-03-18T01:03:00.932Z,26.50
2023-03-18T01:05:33.333Z,26.60
2023-03-18T01:08:04.076Z,26.60
2023-03-18T01:10:35.477Z,26.60
2023-03-18T01:13:05.716Z,26.60
2023-03-18T01:15:46.218Z,26.70
2023-03-18T01:18:15.649Z,26.70
2023-03-18T01:23:29.024Z,26.80
2023-03-18T01:28:49.443Z,27.00
2023-03-18T01:31:34.988Z,27.00
2023-03-18T01:34:05.130Z,27.10
2023-03-18T01:36:40.520Z,27.10
2023-03-18T01:39:11.219Z,27.20
2023-03-18T01:41:41.333Z,27.30
2023-03-18T01:44:26.330Z,27.30
2023-03-18T01:49:46.603Z,27.40
2023-03-18T01:52:24.415Z,27.50
2023-03-18T01:55:15.217Z,27.50
2023-03-18T01:57:49.505Z,27.60
2023-03-18T02:00:52.769Z,27.70
2023-03-18T02:03:23.331Z,27.70
2023-03-18T02:05:52.580Z,27.70
2023-03-18T02:08:22.644Z,27.80
2023-03-18T02:10:52.810Z,27.90
2023-03-18T02:13:24.314Z,27.90
2023-03-18T02:16:02.577Z,28.00
2023-03-18T02:21:35.467Z,28.10
2023-03-18T02:24:50.003Z,28.10
2023-03-18T02:27:25.682Z,28.20
2023-03-18T02:30:04.020Z,28.10
2023-03-18T02:32:35.576Z,28.20
2023-03-18T02:35:13.549Z,28.20
2023-03-18T02:37:49.949Z,28.30
2023-03-18T02:43:39.446Z,28.40
2023-03-18T02:49:28.723Z,28.60
2023-03-18T02:52:01.054Z,28.70
2023-03-18T02:54:32.090Z,28.70
2023-03-18T02:57:15.741Z,28.70
2023-03-18T02:59:53.444Z,28.80
2023-03-18T03:05:12.684Z,28.90
2023-03-18T03:10:25.921Z,29.00
2023-03-18T03:12:54.962Z,29.10
2023-03-18T03:15:36.803Z,29.10
2023-03-18T03:18:16.651Z,29.20
2023-03-18T03:21:06.274Z,29.30
2023-03-18T03:23:35.216Z,29.40
2023-03-18T03:26:05.697Z,29.40
2023-03-18T03:28:35.746Z,29.40
2023-03-18T03:31:15.855Z,29.50
2023-03-18T03:36:40.495Z,29.70
2023-03-18T03:47:18.667Z,29.90
2023-03-18T03:49:47.353Z,29.90
2023-03-18T03:52:20.504Z,30.00
2023-03-18T03:54:55.923Z,30.00
2023-03-18T03:57:30.806Z,30.00
2023-03-18T04:00:12.674Z,30.10
2023-03-18T04:05:30.107Z,30.20
2023-03-18T04:08:20.493Z,30.30
2023-03-18T04:13:42.765Z,30.40
2023-03-18T04:18:56.245Z,30.50
2023-03-18T04:21:30.694Z,30.60
2023-03-18T04:24:03.473Z,30.60
2023-03-18T04:32:00.680Z,30.80
2023-03-18T04:37:11.723Z,30.90
2023-03-18T04:39:53.382Z,30.90
2023-03-18T04:45:13.327Z,31.10
2023-03-18T04:47:44.465Z,31.10
2023-03-18T04:50:14.575Z,31.20
2023-03-18T04:52:44.663Z,31.20
2023-03-18T04:55:16.219Z,31.20
2023-03-18T04:57:45.486Z,31.30
2023-03-18T05:00:18.103Z,31.40
2023-03-18T05:02:46.399Z,31.40
2023-03-18T05:05:15.318Z,31.50
2023-03-18T05:07:47.648Z,31.50
2023-03-18T05:10:30.351Z,31.60
2023-03-18T05:15:55.345Z,31.70
2023-03-18T05:18:27.005Z,31.70
2023-03-18T05:20:56.084Z,31.70
2023-03-18T05:26:08.983Z,31.80
2023-03-18T05:28:37.745Z,31.90
2023-03-18T05:31:07.086Z,31.90
2023-03-18T05:33:35.735Z,31.90
2023-03-18T05:36:04.514Z,31.90
2023-03-18T05:38:33.247Z,31.90
2023-03-18T05:41:03.063Z,31.90
2023-03-18T05:46:20.537Z,32.00
2023-03-18T05:48:58.453Z,31.90
2023-03-18T05:51:32.990Z,31.90
2023-03-18T05:54:12.838Z,32.00
2023-03-18T05:56:56.090Z,32.00
2023-03-18T05:59:36.650Z,32.10
2023-03-18T06:02:08.591Z,32.10
2023-03-18T06:04:46.418Z,32.00
2023-03-18T06:07:22.044Z,32.10
2023-03-18T06:09:54.881Z,32.10
2023-03-18T06:12:41.134Z,32.10
2023-03-18T06:15:42.136Z,32.10
2023-03-18T06:18:11.015Z,32.20
2023-03-18T06:20:39.749Z,32.20
2023-03-18T06:23:08.625Z,32.30
2023-03-18T06:25:37.446Z,32.40
2023-03-18T06:28:06.079Z,32.40
2023-03-18T06:30:35.307Z,32.40
2023-03-18T06:33:18.150Z,32.40
2023-03-18T06:35:50.519Z,32.40
2023-03-18T06:38:37.571Z,32.50
2023-03-18T06:41:12.338Z,32.50
2023-03-18T06:43:53.083Z,32.50
2023-03-18T06:46:24.142Z,32.60
2023-03-18T06:48:53.143Z,32.60
2023-03-18T06:51:21.779Z,32.60
2023-03-18T06:54:00.702Z,32.60
2023-03-18T06:56:46.876Z,32.60
2023-03-18T06:59:17.110Z,32.70
2023-03-18T07:04:32.525Z,32.70
2023-03-18T07:10:18.985Z,32.80
2023-03-18T07:21:09.234Z,32.90
2023-03-18T07:23:39.959Z,32.90
2023-03-18T07:26:09.887Z,32.80
2023-03-18T07:28:38.428Z,32.90
2023-03-18T07:31:07.369Z,32.90
2023-03-18T07:33:36.007Z,32.90
2023-03-18T07:36:05.366Z,32.90
2023-03-18T08:03:18.972Z,33.10
2023-03-18T08:08:58.293Z,33.10
2023-03-18T08:11:47.057Z,33.20
2023-03-18T08:14:15.648Z,33.20
2023-03-18T08:16:44.273Z,33.20
2023-03-18T08:19:13.371Z,33.30
2023-03-18T08:21:42.028Z,33.20
2023-03-18T08:24:10.782Z,33.20
2023-03-18T08:26:39.362Z,33.20
2023-03-18T08:34:52.717Z,33.20
2023-03-18T08:37:26.673Z,33.20
2023-03-18T08:39:57.803Z,33.20
2023-03-18T08:48:05.190Z,33.20
2023-03-18T08:53:32.278Z,33.20
2023-03-18T08:56:08.814Z,33.20
2023-03-18T09:01:37.381Z,33.20
2023-03-18T09:07:03.154Z,33.20
2023-03-18T09:09:44.046Z,33.20
2023-03-18T09:20:37.403Z,33.20
2023-03-18T09:23:19.467Z,33.10
2023-03-18T09:26:01.339Z,33.10
2023-03-18T09:28:30.684Z,33.10
2023-03-18T09:30:59.835Z,33.10
2023-03-18T09:33:28.491Z,33.00
2023-03-18T09:35:57.240Z,33.00
2023-03-18T09:41:47.109Z,33.00
2023-03-18T09:44:29.296Z,33.00
2023-03-18T09:47:16.260Z,33.00
2023-03-18T09:50:01.442Z,32.90
2023-03-18T09:56:00.045Z,32.90
2023-03-18T09:58:41.324Z,32.80
2023-03-18T10:01:14.166Z,32.80
2023-03-18T10:03:51.982Z,32.80
2023-03-18T10:06:23.161Z,32.80
2023-03-18T10:09:03.755Z,32.70
2023-03-18T10:11:35.607Z,32.70
2023-03-18T10:14:24.277Z,32.70
2023-03-18T10:17:11.724Z,32.70
2023-03-18T10:19:48.772Z,32.70
2023-03-18T10:22:44.935Z,32.60
2023-03-18T10:25:25.478Z,32.70
2023-03-18T10:28:07.817Z,32.60
2023-03-18T10:34:28.290Z,32.50
2023-03-18T10:37:34.024Z,32.50
2023-03-18T10:40:03.750Z,32.50
2023-03-18T10:42:36.594Z,32.40
2023-03-18T10:48:18.881Z,32.30
2023-03-18T10:51:08.623Z,32.30
2023-03-18T10:54:11.547Z,32.30
2023-03-18T10:56:40.926Z,32.20
2023-03-18T10:59:19.448Z,32.20
2023-03-18T11:01:52.851Z,32.10
2023-03-18T11:04:24.671Z,32.00
2023-03-18T11:07:04.205Z,32.00
2023-03-18T11:09:37.337Z,32.00
2023-03-18T11:12:16.742Z,31.90
2023-03-18T11:14:56.516Z,31.90
2023-03-18T11:20:46.506Z,31.70
2023-03-18T11:24:01.571Z,31.70
2023-03-18T11:32:15.045Z,31.50
2023-03-18T11:35:02.293Z,31.40
2023-03-18T11:37:47.686Z,31.30
2023-03-18T11:43:26.472Z,31.20
2023-03-18T11:48:50.865Z,31.10
2023-03-18T11:51:45.138Z,31.10
2023-03-18T11:54:42.212Z,31.00
2023-03-18T11:57:20.626Z,30.90
2023-03-18T12:00:15.637Z,30.90
2023-03-18T12:05:45.907Z,30.80
2023-03-18T12:08:34.824Z,30.70
2023-03-18T12:11:12.398Z,30.70
2023-03-18T12:14:01.747Z,30.70
2023-03-18T12:16:50.989Z,30.70
2023-03-18T12:19:57.821Z,30.70
2023-03-18T12:25:49.196Z,30.60
2023-03-18T12:28:38.538Z,30.50
2023-03-18T12:31:50.376Z,30.50
2023-03-18T12:34:51.525Z,30.40
2023-03-18T12:38:02.101Z,30.50
2023-03-18T12:40:57.664Z,30.40
2023-03-18T12:43:40.270Z,30.40
2023-03-18T12:46:46.633Z,30.40
2023-03-18T12:52:48.214Z,30.40
2023-03-18T12:55:27.857Z,30.40
2023-03-18T12:58:04.805Z,30.40
2023-03-18T13:00:40.911Z,30.30
2023-03-18T13:03:30.541Z,30.30
2023-03-18T13:06:07.166Z,30.30
2023-03-18T13:09:16.401Z,30.30
2023-03-18T13:12:09.121Z,30.30
2023-03-18T13:17:47.884Z,30.40
2023-03-18T13:20:36.368Z,30.40
2023-03-18T13:29:48.117Z,30.40
2023-03-18T13:32:58.618Z,30.30
2023-03-18T13:36:21.402Z,30.30
2023-03-18T13:39:35.804Z,30.30
2023-03-18T13:45:13.971Z,30.10
2023-03-18T13:47:48.393Z,30.10
2023-03-18T13:50:30.077Z,30.10
2023-03-18T13:53:11.751Z,30.10
2023-03-18T13:55:50.381Z,30.10
2023-03-18T13:58:41.941Z,30.10
2023-03-18T14:01:34.359Z,30.10
2023-03-18T14:04:34.025Z,30.00
2023-03-18T14:15:57.697Z,29.80
2023-03-18T14:18:29.542Z,29.80
2023-03-18T14:21:02.763Z,29.80
2023-03-18T14:26:45.302Z,29.70
2023-03-18T14:29:16.827Z,29.60
2023-03-18T14:32:00.140Z,29.60
2023-03-18T14:45:55.455Z,29.40
2023-03-18T14:51:32.960Z,29.30
2023-03-18T14:54:13.474Z,29.30
2023-03-18T15:16:34.303Z,29.10
2023-03-18T15:21:52.786Z,29.00
2023-03-18T15:24:32.954Z,29.00
2023-03-18T15:27:14.292Z,29.00
2023-03-18T15:29:54.093Z,29.00
2023-03-18T15:32:27.367Z,29.00
2023-03-18T15:34:59.809Z,29.00
2023-03-18T15:40:38.335Z,28.90
2023-03-18T15:43:26.209Z,28.90
2023-03-18T15:46:09.244Z,28.90
2023-03-18T15:57:35.580Z,28.80
2023-03-18T16:05:56.439Z,28.70
2023-03-18T16:08:53.075Z,28.60
2023-03-18T16:11:30.839Z,28.60
2023-03-18T16:14:17.197Z,28.50
2023-03-18T16:27:52.349Z,28.50
2023-03-18T16:30:24.324Z,28.40
2023-03-18T16:32:53.580Z,28.50
2023-03-18T16:35:26.286Z,28.50
2023-03-18T16:37:54.587Z,28.50
2023-03-18T16:40:25.447Z,28.50
2023-03-18T16:42:54.558Z,28.50
2023-03-18T16:45:30.697Z,28.50
2023-03-18T16:48:05.757Z,28.60
2023-03-18T16:50:38.348Z,28.60
2023-03-18T16:53:28.057Z,28.60
2023-03-18T16:56:15.973Z,28.60
2023-03-18T16:58:58.198Z,28.60
2023-03-18T17:04:26.961Z,28.60
2023-03-18T17:06:56.872Z,28.60
2023-03-18T17:09:27.142Z,28.60
2023-03-18T17:12:00.090Z,28.60
2023-03-18T17:14:48.281Z,28.60
2023-03-18T17:23:23.401Z,28.50
2023-03-18T17:28:53.412Z,28.50
2023-03-18T17:37:12.247Z,28.40
2023-03-18T17:39:46.650Z,28.40
2023-03-18T17:45:34.884Z,28.40
2023-03-18T18:02:30.678Z,28.00
2023-03-18T18:04:59.282Z,28.00
2023-03-18T18:07:27.764Z,27.90
2023-03-18T18:09:57.887Z,27.90
2023-03-18T18:12:26.551Z,27.80
2023-03-18T18:14:55.061Z,27.80
2023-03-18T18:17:23.624Z,27.80
2023-03-18T18:19:52.255Z,27.80
2023-03-18T18:22:24.873Z,27.70
2023-03-18T18:24:55.198Z,27.70
2023-03-18T18:27:44.685Z,27.80
2023-03-18T18:30:23.128Z,27.80
2023-03-18T18:36:10.702Z,27.90
2023-03-18T18:38:41.148Z,27.90
2023-03-18T18:43:53.577Z,28.00
2023-03-18T18:46:22.767Z,28.00
2023-03-18T18:48:52.710Z,27.90
2023-03-18T18:51:23.995Z,27.90
2023-03-18T18:53:55.031Z,27.90
2023-03-18T18:56:35.136Z,27.80
2023-03-18T18:59:07.862Z,27.80
2023-03-18T19:01:36.111Z,27.70
2023-03-18T19:04:04.770Z,27.70
2023-03-18T19:06:34.984Z,27.70
2023-03-18T19:09:12.277Z,27.60
2023-03-18T19:11:47.585Z,27.60
2023-03-18T19:17:31.512Z,27.60
2023-03-18T19:20:34.593Z,27.60
2023-03-18T19:23:07.036Z,27.60
2023-03-18T19:29:03.454Z,27.60
2023-03-18T19:34:26.027Z,27.60
2023-03-18T19:45:27.055Z,27.60
2023-03-18T19:47:55.653Z,27.60
2023-03-18T19:50:24.362Z,27.60
2023-03-18T19:52:54.106Z,27.60
2023-03-18T19:55:24.297Z,27.50
2023-03-18T19:57:54.494Z,27.60
2023-03-18T20:03:29.095Z,27.60
2023-03-18T20:06:20.159Z,27.60
2023-03-18T20:08:55.879Z,27.50
2023-03-18T20:11:34.210Z,27.50
2023-03-18T20:14:08.893Z,27.60
2023-03-18T20:22:15.897Z,27.50
2023-03-18T20:30:25.283Z,27.40
2023-03-18T20:38:48.183Z,27.40
2023-03-18T20:41:23.493Z,27.40
2023-03-18T20:43:59.397Z,27.40
2023-03-18T20:46:35.894Z,27.40
2023-03-18T20:51:57.850Z,27.40
2023-03-18T20:54:33.194Z,27.40
2023-03-18T20:59:44.826Z,27.40
2023-03-18T21:02:34.207Z,27.40
2023-03-18T21:05:04.078Z,27.40
2023-03-18T21:07:32.737Z,27.30
2023-03-18T21:10:01.766Z,27.30
2023-03-18T21:12:33.157Z,27.30
2023-03-18T21:15:16.141Z,27.30
2023-03-18T21:17:50.461Z,27.30
2023-03-18T21:23:38.808Z,27.20
2023-03-18T21:26:20.522Z,27.20
2023-03-18T21:28:51.733Z,27.10
2023-03-18T21:39:54.076Z,26.90
2023-03-18T21:50:51.690Z,26.90
2023-03-18T21:53:30.257Z,26.80
2023-03-18T22:07:11.527Z,26.70
2023-03-18T22:09:49.867Z,26.60
2023-03-18T22:12:25.318Z,26.60
2023-03-18T22:14:55.254Z,26.70
2023-03-18T22:17:26.784Z,26.60
2023-03-18T22:19:56.885Z,26.60
2023-03-18T22:22:30.540Z,26.60
2023-03-18T22:24:59.209Z,26.60
2023-03-18T22:33:14.460Z,26.50
2023-03-18T22:38:44.599Z,26.50
2023-03-18T22:41:24.235Z,26.60
2023-03-18T22:43:55.636Z,26.50
2023-03-18T22:46:27.131Z,26.50
2023-03-18T22:48:57.889Z,26.50
2023-03-18T22:51:48.996Z,26.50
2023-03-18T22:54:26.055Z,26.50
2023-03-18T22:59:41.914Z,26.50
2023-03-18T23:05:04.992Z,26.40
2023-03-18T23:10:27.269Z,26.40
2023-03-18T23:12:58.549Z,26.30
2023-03-18T23:15:27.160Z,26.30
2023-03-18T23:17:55.793Z,26.30
2023-03-18T23:20:24.463Z,26.30
2023-03-18T23:28:20.175Z,26.20
2023-03-18T23:30:51.369Z,26.20
2023-03-18T23:33:20.778Z,26.20
2023-03-18T23:35:49.783Z,26.20
2023-03-18T23:41:16.223Z,26.20
2023-03-18T23:46:33.184Z,26.20
2023-03-18T23:54:33.053Z,26.20
